createdAt,value
2017-07-11T00:00:42.389Z,0
2017-07-11T00:01:52.636Z,0
2017-07-11T00:03:02.881Z,0
2017-07-11T00:04:13.139Z,0
2017-07-11T00:05:23.665Z,0
2017-07-11T00:06:33.303Z,0
2017-07-11T00:07:43.256Z,0
2017-07-11T00:08:53.521Z,0
2017-07-11T00:10:03.792Z,0
2017-07-11T00:11:14.367Z,0
2017-07-11T00:12:24.637Z,0
2017-07-11T00:13:34.278Z,0
2017-07-11T00:14:44.238Z,0
2017-07-11T00:15:54.212Z,0
2017-07-11T00:17:04.780Z,0
2017-07-11T00:18:15.035Z,0
2017-07-11T00:19:25.313Z,0
2017-07-11T00:20:34.968Z,0
2017-07-11T00:21:44.919Z,0
2017-07-11T00:22:55.442Z,0
2017-07-11T00:24:05.065Z,0
2017-07-11T00:25:15.003Z,0
2017-07-11T00:26:24.950Z,0
2017-07-11T00:27:34.910Z,0
2017-07-11T00:28:45.424Z,0
2017-07-11T00:29:55.383Z,0
2017-07-11T00:31:05.333Z,0
2017-07-11T00:32:14.647Z,0
2017-07-11T00:33:24.918Z,0
2017-07-11T00:34:35.129Z,0
2017-07-11T00:35:45.401Z,0
2017-07-11T00:36:55.353Z,0
2017-07-11T00:38:05.611Z,0
2017-07-11T00:39:15.577Z,0
2017-07-11T00:40:26.136Z,0
2017-07-11T00:41:36.419Z,0
2017-07-11T00:42:46.689Z,0
2017-07-11T00:43:56.962Z,0
2017-07-11T00:45:06.612Z,0
2017-07-11T00:46:17.124Z,0
2017-07-11T00:47:27.388Z,0
2017-07-11T00:48:37.678Z,0
2017-07-11T00:49:47.633Z,0
2017-07-11T00:50:57.969Z,0
2017-07-11T00:52:08.508Z,0
2017-07-11T00:53:18.462Z,0
2017-07-11T00:54:28.418Z,0
2017-07-11T00:55:38.363Z,0
2017-07-11T00:56:48.303Z,0
2017-07-11T00:57:58.174Z,0
2017-07-11T00:59:08.469Z,0
2017-07-11T01:00:18.741Z,0
2017-07-11T01:01:28.695Z,0
2017-07-11T01:02:38.641Z,0
2017-07-11T01:03:49.155Z,0
2017-07-11T01:04:59.110Z,0
2017-07-11T01:06:09.077Z,0
2017-07-11T01:07:19.019Z,0
2017-07-11T01:08:29.284Z,0
2017-07-11T01:09:39.841Z,0
2017-07-11T01:10:49.785Z,0
2017-07-11T01:11:59.735Z,0
2017-07-11T01:13:10.016Z,0
2017-07-11T01:14:20.281Z,0
2017-07-11T01:15:30.818Z,0
2017-07-11T01:16:41.082Z,0
2017-07-11T01:17:51.027Z,0
2017-07-11T01:19:01.296Z,0
2017-07-11T01:20:11.262Z,0
2017-07-11T01:21:21.464Z,0
2017-07-11T01:22:31.095Z,0
2017-07-11T01:23:41.377Z,0
2017-07-11T01:24:51.329Z,0
2017-07-11T01:26:01.280Z,0
2017-07-11T01:27:11.809Z,0
2017-07-11T01:28:22.086Z,0
2017-07-11T01:29:32.352Z,0
2017-07-11T01:30:42.610Z,0
2017-07-11T01:31:52.873Z,0
2017-07-11T01:33:03.461Z,0
2017-07-11T01:34:13.415Z,0
2017-07-11T01:35:23.688Z,0
2017-07-11T01:36:33.635Z,0
2017-07-11T01:37:43.576Z,0
2017-07-11T01:38:54.085Z,0
2017-07-11T01:40:03.724Z,0
2017-07-11T01:41:13.345Z,0
2017-07-11T01:42:23.303Z,0
2017-07-11T01:43:33.261Z,0
2017-07-11T01:44:43.468Z,0
2017-07-11T01:45:53.429Z,0
2017-07-11T01:47:02.429Z,0
2017-07-11T01:48:12.367Z,0
2017-07-11T01:49:22.329Z,0
2017-07-11T01:50:32.900Z,0
2017-07-11T01:51:42.834Z,0
2017-07-11T01:52:53.099Z,0
2017-07-11T01:54:03.354Z,0
2017-07-11T01:55:13.309Z,0
2017-07-11T01:56:23.875Z,0
2017-07-11T01:57:33.829Z,0
2017-07-11T01:58:43.466Z,0
2017-07-11T01:59:53.426Z,0
2017-07-11T02:01:03.720Z,0
2017-07-11T02:02:13.923Z,0
2017-07-11T02:03:23.943Z,0
2017-07-11T02:04:33.574Z,0
2017-07-11T02:05:43.840Z,0
2017-07-11T02:06:54.100Z,0
2017-07-11T02:08:04.652Z,0
2017-07-11T02:09:14.608Z,0
2017-07-11T02:10:24.866Z,0
2017-07-11T02:11:35.129Z,0
2017-07-11T02:12:45.413Z,0
2017-07-11T02:13:55.932Z,0
2017-07-11T02:15:06.220Z,0
2017-07-11T02:16:16.177Z,0
2017-07-11T02:17:25.797Z,0
2017-07-11T02:18:36.073Z,0
2017-07-11T02:19:46.275Z,4
2017-07-11T02:20:56.210Z,4
2017-07-11T02:22:05.836Z,4
2017-07-11T02:23:15.456Z,4
2017-07-11T02:24:25.742Z,4
2017-07-11T02:25:36.270Z,8
2017-07-11T02:26:46.529Z,8
2017-07-11T02:27:56.781Z,12
2017-07-11T02:29:07.065Z,12
2017-07-11T02:30:17.340Z,16
2017-07-11T02:31:27.851Z,16
2017-07-11T02:32:37.808Z,16
2017-07-11T02:33:48.071Z,20
2017-07-11T02:34:58.385Z,20
2017-07-11T02:36:08.648Z,24
2017-07-11T02:37:18.891Z,24
2017-07-11T02:38:29.145Z,28
2017-07-11T02:39:39.092Z,28
2017-07-11T02:40:49.037Z,36
2017-07-11T02:41:58.970Z,48
2017-07-11T02:43:08.535Z,56
2017-07-11T02:44:18.799Z,64
2017-07-11T02:45:29.072Z,68
2017-07-11T02:46:39.338Z,88
2017-07-11T02:47:49.279Z,108
2017-07-11T02:48:59.796Z,124
2017-07-11T02:50:09.741Z,144
2017-07-11T02:51:20.036Z,164
2017-07-11T02:52:30.312Z,184
2017-07-11T02:53:40.579Z,204
2017-07-11T02:54:51.087Z,220
2017-07-11T02:56:01.362Z,252
2017-07-11T02:57:11.624Z,284
2017-07-11T02:58:21.877Z,296
2017-07-11T02:59:32.150Z,316
2017-07-11T03:00:42.345Z,348
2017-07-11T03:01:52.610Z,400
2017-07-11T03:03:02.554Z,448
2017-07-11T03:04:12.844Z,512
2017-07-11T03:05:23.121Z,572
2017-07-11T03:06:33.648Z,632
2017-07-11T03:07:43.910Z,692
2017-07-11T03:08:54.190Z,744
2017-07-11T03:10:04.448Z,796
2017-07-11T03:11:14.713Z,828
2017-07-11T03:12:25.214Z,852
2017-07-11T03:13:35.471Z,888
2017-07-11T03:14:45.771Z,928
2017-07-11T03:15:56.061Z,972
2017-07-11T03:17:06.009Z,1024
2017-07-11T03:18:16.208Z,1072
2017-07-11T03:19:26.159Z,1116
2017-07-11T03:20:36.419Z,1164
2017-07-11T03:21:46.696Z,1172
2017-07-11T03:22:56.962Z,1176
2017-07-11T03:24:07.517Z,1168
2017-07-11T03:25:17.801Z,1152
2017-07-11T03:26:27.755Z,1160
2017-07-11T03:27:37.707Z,1176
2017-07-11T03:28:47.348Z,1236
2017-07-11T03:29:57.857Z,1264
2017-07-11T03:31:07.814Z,1396
2017-07-11T03:32:18.106Z,1608
2017-07-11T03:33:28.363Z,1628
2017-07-11T03:34:38.621Z,1704
2017-07-11T03:35:48.873Z,1836
2017-07-11T03:36:59.133Z,1912
2017-07-11T03:38:09.392Z,1984
2017-07-11T03:39:19.661Z,2000
2017-07-11T03:40:29.931Z,2184
2017-07-11T03:41:40.132Z,2316
2017-07-11T03:42:50.402Z,2344
2017-07-11T03:44:00.675Z,2220
2017-07-11T03:45:10.630Z,2240
2017-07-11T03:46:20.586Z,2288
2017-07-11T03:47:30.818Z,2352
2017-07-11T03:48:41.092Z,2380
2017-07-11T03:49:51.367Z,2380
2017-07-11T03:51:01.649Z,2504
2017-07-11T03:52:11.923Z,2584
2017-07-11T03:53:22.441Z,2756
2017-07-11T03:54:32.701Z,2816
2017-07-11T03:55:42.646Z,2784
2017-07-11T03:56:52.601Z,2808
2017-07-11T03:58:02.862Z,2920
2017-07-11T03:59:13.081Z,3080
2017-07-11T04:00:23.039Z,3108
2017-07-11T04:01:32.996Z,3032
2017-07-11T04:02:42.934Z,3112
2017-07-11T04:03:53.193Z,3188
2017-07-11T04:05:03.707Z,3364
2017-07-11T04:06:13.999Z,3620
2017-07-11T04:07:24.310Z,3748
2017-07-11T04:08:34.574Z,3664
2017-07-11T04:09:44.523Z,3644
2017-07-11T04:10:55.097Z,3828
2017-07-11T04:12:05.381Z,3880
2017-07-11T04:13:15.652Z,4048
2017-07-11T04:14:25.908Z,3968
2017-07-11T04:15:36.182Z,4328
2017-07-11T04:16:46.706Z,4448
2017-07-11T04:17:56.986Z,4580
2017-07-11T04:19:07.242Z,4704
2017-07-11T04:20:17.516Z,4932
2017-07-11T04:21:27.468Z,5228
2017-07-11T04:22:37.974Z,5448
2017-07-11T04:23:47.981Z,5756
2017-07-11T04:24:58.267Z,6104
2017-07-11T04:26:08.547Z,6280
2017-07-11T04:27:18.501Z,6288
2017-07-11T04:28:29.028Z,6492
2017-07-11T04:29:39.289Z,6624
2017-07-11T04:30:49.240Z,6820
2017-07-11T04:31:59.185Z,6920
2017-07-11T04:33:09.148Z,7052
2017-07-11T04:34:19.674Z,7264
2017-07-11T04:35:29.638Z,7768
2017-07-11T04:36:39.884Z,7984
2017-07-11T04:37:50.165Z,8300
2017-07-11T04:39:00.122Z,8632
2017-07-11T04:40:10.631Z,8916
2017-07-11T04:41:20.892Z,9096
2017-07-11T04:42:31.175Z,9256
2017-07-11T04:43:41.433Z,9384
2017-07-11T04:44:51.717Z,9484
2017-07-11T04:46:01.980Z,9528
2017-07-11T04:47:12.326Z,9544
2017-07-11T04:48:21.956Z,9548
2017-07-11T04:49:31.911Z,9560
2017-07-11T04:50:42.176Z,9568
2017-07-11T04:51:52.681Z,9616
2017-07-11T04:53:02.955Z,9632
2017-07-11T04:54:13.231Z,9704
2017-07-11T04:55:23.513Z,9676
2017-07-11T04:56:33.457Z,9864
2017-07-11T04:57:43.977Z,9968
2017-07-11T04:58:53.939Z,10236
2017-07-11T05:00:04.217Z,10528
2017-07-11T05:01:13.869Z,10672
2017-07-11T05:02:24.120Z,10820
2017-07-11T05:03:34.640Z,11088
2017-07-11T05:04:44.909Z,11208
2017-07-11T05:05:55.213Z,11356
2017-07-11T05:07:05.500Z,11460
2017-07-11T05:08:15.765Z,11500
2017-07-11T05:09:26.288Z,11484
2017-07-11T05:10:35.946Z,11508
2017-07-11T05:11:46.220Z,11556
2017-07-11T05:12:56.487Z,11556
2017-07-11T05:14:06.450Z,11596
2017-07-11T05:15:16.973Z,11664
2017-07-11T05:16:27.244Z,11604
2017-07-11T05:17:37.185Z,11516
2017-07-11T05:18:47.448Z,11356
2017-07-11T05:19:57.719Z,11216
2017-07-11T05:21:08.294Z,11240
2017-07-11T05:22:18.563Z,11360
2017-07-11T05:23:28.835Z,11432
2017-07-11T05:24:39.100Z,11584
2017-07-11T05:25:49.353Z,11684
2017-07-11T05:26:59.552Z,11920
2017-07-11T05:28:09.490Z,12068
2017-07-11T05:29:19.455Z,12392
2017-07-11T05:30:29.746Z,12584
2017-07-11T05:31:39.706Z,12688
2017-07-11T05:32:50.233Z,12756
2017-07-11T05:34:00.503Z,12744
2017-07-11T05:35:10.767Z,12812
2017-07-11T05:36:20.463Z,12896
2017-07-11T05:37:30.427Z,13024
2017-07-11T05:38:40.632Z,13084
2017-07-11T05:39:50.896Z,13156
2017-07-11T05:41:00.842Z,13272
2017-07-11T05:42:10.806Z,13392
2017-07-11T05:43:21.082Z,13496
2017-07-11T05:44:31.595Z,13584
2017-07-11T05:45:41.876Z,13696
2017-07-11T05:46:51.818Z,13836
2017-07-11T05:48:02.131Z,13952
2017-07-11T05:49:12.077Z,14032
2017-07-11T05:50:22.590Z,14136
2017-07-11T05:51:32.905Z,14312
2017-07-11T05:52:43.213Z,14524
2017-07-11T05:53:53.501Z,14700
2017-07-11T05:55:03.772Z,14772
2017-07-11T05:56:14.344Z,14860
2017-07-11T05:57:24.613Z,14940
2017-07-11T05:58:34.573Z,14980
2017-07-11T05:59:44.856Z,15004
2017-07-11T06:00:55.135Z,15088
2017-07-11T06:02:05.656Z,15188
2017-07-11T06:03:15.294Z,15300
2017-07-11T06:04:25.566Z,15432
2017-07-11T06:05:35.849Z,15620
2017-07-11T06:06:46.108Z,15864
2017-07-11T06:07:56.614Z,16084
2017-07-11T06:09:06.893Z,16136
2017-07-11T06:10:17.158Z,16076
2017-07-11T06:11:27.448Z,16072
2017-07-11T06:12:37.411Z,16148
2017-07-11T06:13:47.940Z,16224
2017-07-11T06:14:58.205Z,16200
2017-07-11T06:16:08.635Z,16192
2017-07-11T06:17:18.281Z,16044
2017-07-11T06:18:28.564Z,15876
2017-07-11T06:19:39.092Z,15812
2017-07-11T06:20:49.365Z,15804
2017-07-11T06:21:59.637Z,15716
2017-07-11T06:23:09.952Z,15664
2017-07-11T06:24:20.244Z,15680
2017-07-11T06:25:35.064Z,15736
2017-07-11T06:26:45.032Z,15856
2017-07-11T06:27:55.306Z,16000
2017-07-11T06:29:05.587Z,16204
2017-07-11T06:30:15.889Z,16400
2017-07-11T06:31:26.166Z,16592
2017-07-11T06:32:36.446Z,16860
2017-07-11T06:33:46.395Z,17120
2017-07-11T06:34:56.681Z,17316
2017-07-11T06:36:06.679Z,17404
2017-07-11T06:37:17.204Z,17428
2017-07-11T06:38:27.474Z,17556
2017-07-11T06:39:37.761Z,17676
2017-07-11T06:40:48.053Z,18080
2017-07-11T06:41:58.334Z,18272
2017-07-11T06:43:08.538Z,18368
2017-07-11T06:44:18.489Z,18720
2017-07-11T06:45:28.457Z,18912
2017-07-11T06:46:38.736Z,19200
2017-07-11T06:47:49.038Z,19840
2017-07-11T06:48:59.568Z,19456
2017-07-11T06:50:09.514Z,19328
2017-07-11T06:51:19.152Z,19520
2017-07-11T06:52:29.104Z,19808
2017-07-11T06:53:39.400Z,19808
2017-07-11T06:54:49.627Z,19616
2017-07-11T06:55:59.892Z,19584
2017-07-11T06:57:10.188Z,19360
2017-07-11T06:58:20.536Z,19008
2017-07-11T06:59:30.803Z,18624
2017-07-11T07:00:41.030Z,17968
2017-07-11T07:01:51.310Z,17468
2017-07-11T07:03:01.596Z,17016
2017-07-11T07:04:11.851Z,16500
2017-07-11T07:05:21.808Z,16072
2017-07-11T07:06:32.028Z,15656
2017-07-11T07:07:42.306Z,15296
2017-07-11T07:08:52.607Z,15044
2017-07-11T07:10:02.557Z,14940
2017-07-11T07:11:12.858Z,14488
2017-07-11T07:12:23.410Z,14076
2017-07-11T07:13:33.684Z,13784
2017-07-11T07:14:43.630Z,13680
2017-07-11T07:15:53.655Z,13748
2017-07-11T07:17:03.612Z,13712
2017-07-11T07:18:13.835Z,13780
2017-07-11T07:19:24.146Z,14252
2017-07-11T07:20:34.097Z,14836
2017-07-11T07:21:44.372Z,14600
2017-07-11T07:22:54.334Z,15008
2017-07-11T07:24:04.860Z,15004
2017-07-11T07:25:15.142Z,14844
2017-07-11T07:26:25.424Z,14548
2017-07-11T07:27:35.397Z,14212
2017-07-11T07:28:45.045Z,14052
2017-07-11T07:29:55.315Z,14032
2017-07-11T07:31:05.584Z,13956
2017-07-11T07:32:15.874Z,14112
2017-07-11T07:33:26.162Z,14196
2017-07-11T07:34:36.408Z,14356
2017-07-11T07:35:46.616Z,14660
2017-07-11T07:36:56.890Z,15020
2017-07-11T07:38:07.163Z,14796
2017-07-11T07:39:17.506Z,14508
2017-07-11T07:40:27.851Z,14668
2017-07-11T07:41:38.393Z,14972
2017-07-11T07:42:48.639Z,15276
2017-07-11T07:43:58.911Z,15596
2017-07-11T07:45:09.186Z,16032
2017-07-11T07:46:19.463Z,16424
2017-07-11T07:47:29.985Z,16824
2017-07-11T07:48:40.268Z,17124
2017-07-11T07:49:50.218Z,17504
2017-07-11T07:51:00.507Z,17956
2017-07-11T07:52:10.142Z,18432
2017-07-11T07:53:20.660Z,18704
2017-07-11T07:54:30.611Z,19232
2017-07-11T07:55:40.876Z,19424
2017-07-11T07:56:51.389Z,19392
2017-07-11T07:58:01.658Z,19616
2017-07-11T07:59:11.881Z,19680
2017-07-11T08:00:22.151Z,19520
2017-07-11T08:01:32.422Z,19648
2017-07-11T08:02:42.726Z,20032
2017-07-11T08:03:52.997Z,20352
2017-07-11T08:05:03.527Z,20928
2017-07-11T08:06:13.807Z,21472
2017-07-11T08:07:23.772Z,21696
2017-07-11T08:08:34.029Z,22240
2017-07-11T08:09:44.299Z,22592
2017-07-11T08:10:54.497Z,22816
2017-07-11T08:12:04.775Z,23168
2017-07-11T08:13:15.114Z,23584
2017-07-11T08:14:25.428Z,23904
2017-07-11T08:15:35.721Z,24224
2017-07-11T08:16:46.263Z,24640
2017-07-11T08:17:56.555Z,24896
2017-07-11T08:19:06.534Z,25120
2017-07-11T08:20:16.170Z,25472
2017-07-11T08:21:26.460Z,25376
2017-07-11T08:22:37.002Z,25120
2017-07-11T08:23:47.271Z,25344
2017-07-11T08:24:56.937Z,25344
2017-07-11T08:26:07.203Z,25056
2017-07-11T08:27:17.484Z,25152
2017-07-11T08:28:28.014Z,24960
2017-07-11T08:29:38.284Z,24832
2017-07-11T08:30:48.239Z,24800
2017-07-11T08:31:58.549Z,24832
2017-07-11T08:33:08.822Z,24704
2017-07-11T08:34:19.350Z,24928
2017-07-11T08:35:29.622Z,25344
2017-07-11T08:36:39.900Z,25856
2017-07-11T08:37:50.165Z,28640
2017-07-11T08:39:00.447Z,43680
2017-07-11T08:40:10.994Z,49376
2017-07-11T08:41:20.958Z,54176
2017-07-11T08:42:31.234Z,59328
2017-07-11T08:43:41.575Z,59392
2017-07-11T08:44:51.882Z,50560
2017-07-11T08:46:02.421Z,54304
2017-07-11T08:47:12.708Z,59040
2017-07-11T08:48:22.985Z,56992
2017-07-11T08:49:33.262Z,60320
2017-07-11T08:50:43.237Z,57216
2017-07-11T08:51:53.126Z,60448
2017-07-11T08:53:03.082Z,64192
2017-07-11T08:54:13.344Z,66464
2017-07-11T08:55:23.326Z,62176
2017-07-11T08:56:33.290Z,37216
2017-07-11T08:57:43.504Z,59104
2017-07-11T08:58:53.484Z,57280
2017-07-11T09:00:03.451Z,62368
2017-07-11T09:01:13.405Z,59104
2017-07-11T09:02:23.393Z,67008
2017-07-11T09:03:33.926Z,71168
2017-07-11T09:04:43.916Z,70400
2017-07-11T09:05:54.178Z,72704
2017-07-11T09:07:04.464Z,67680
2017-07-11T09:08:14.438Z,63392
2017-07-11T09:09:24.667Z,68128
2017-07-11T09:10:34.983Z,72224
2017-07-11T09:11:45.265Z,67904
2017-07-11T09:12:55.548Z,66976
2017-07-11T09:14:05.824Z,65696
2017-07-11T09:15:16.054Z,70656
2017-07-11T09:16:26.538Z,76352
2017-07-11T09:17:36.849Z,66816
2017-07-11T09:18:46.831Z,66688
2017-07-11T09:19:57.142Z,73440
2017-07-11T09:21:07.353Z,81440
2017-07-11T09:22:17.648Z,50752
2017-07-11T09:23:27.988Z,79296
2017-07-11T09:24:37.998Z,81216
2017-07-11T09:25:47.977Z,81440
2017-07-11T09:26:58.507Z,85408
2017-07-11T09:28:08.798Z,90240
2017-07-11T09:29:18.440Z,80416
2017-07-11T09:30:28.737Z,50176
2017-07-11T09:31:39.013Z,37312
2017-07-11T09:32:49.236Z,33632
2017-07-11T09:33:59.531Z,29984
2017-07-11T09:35:09.835Z,31040
2017-07-11T09:36:20.125Z,35328
2017-07-11T09:37:30.422Z,42048
2017-07-11T09:38:40.719Z,42496
2017-07-11T09:39:50.989Z,61280
2017-07-11T09:41:00.664Z,47424
2017-07-11T09:42:10.634Z,65984
2017-07-11T09:43:20.918Z,83264
2017-07-11T09:44:31.467Z,66240
2017-07-11T09:45:41.182Z,63008
2017-07-11T09:46:51.158Z,86720
2017-07-11T09:48:01.444Z,53440
2017-07-11T09:49:11.419Z,80704
2017-07-11T09:50:21.615Z,48608
2017-07-11T09:51:31.923Z,88608
2017-07-11T09:52:42.221Z,100256
2017-07-11T09:53:52.535Z,91840
2017-07-11T09:55:02.841Z,84928
2017-07-11T09:56:13.404Z,87872
2017-07-11T09:57:23.389Z,83200
2017-07-11T09:58:33.394Z,87456
2017-07-11T09:59:43.697Z,89056
2017-07-11T10:00:53.983Z,84480
2017-07-11T10:02:04.255Z,103616
2017-07-11T10:03:14.569Z,108224
2017-07-11T10:04:24.580Z,109760
2017-07-11T10:05:34.894Z,114304
2017-07-11T10:06:45.200Z,100576
2017-07-11T10:07:55.783Z,51616
2017-07-11T10:09:05.824Z,60448
2017-07-11T10:10:16.135Z,121376
2017-07-11T10:11:26.419Z,118464
2017-07-11T10:12:36.724Z,115520
2017-07-11T10:13:47.281Z,113536
2017-07-11T10:14:57.591Z,114400
2017-07-11T10:16:07.854Z,113568
2017-07-11T10:17:17.812Z,90048
2017-07-11T10:18:27.846Z,95936
2017-07-11T10:19:38.634Z,103808
2017-07-11T10:20:48.593Z,70848
2017-07-11T10:21:58.574Z,100832
2017-07-11T10:23:08.857Z,91456
2017-07-11T10:24:19.172Z,79328
2017-07-11T10:25:29.733Z,66752
2017-07-11T10:26:40.015Z,57824
2017-07-11T10:27:50.022Z,58048
2017-07-11T10:29:00.312Z,39168
2017-07-11T10:30:10.597Z,38848
2017-07-11T10:31:21.200Z,54176
2017-07-11T10:32:31.183Z,90752
2017-07-11T10:33:41.165Z,81120
2017-07-11T10:34:51.148Z,91968
2017-07-11T10:36:01.433Z,103104
2017-07-11T10:37:11.955Z,99072
2017-07-11T10:38:22.260Z,93824
2017-07-11T10:39:32.559Z,102272
2017-07-11T10:40:42.855Z,105120
2017-07-11T10:41:52.847Z,102080
2017-07-11T10:43:03.100Z,113376
2017-07-11T10:44:13.078Z,111744
2017-07-11T10:45:23.377Z,116480
2017-07-11T10:46:33.371Z,107264
2017-07-11T10:47:43.663Z,93824
2017-07-11T10:48:53.875Z,70848
2017-07-11T10:50:04.196Z,86880
2017-07-11T10:51:14.645Z,82368
2017-07-11T10:52:24.624Z,96256
2017-07-11T10:53:34.908Z,104704
2017-07-11T10:54:45.436Z,101024
2017-07-11T10:55:55.729Z,108352
2017-07-11T10:57:05.693Z,115712
2017-07-11T10:58:15.975Z,109504
2017-07-11T10:59:26.274Z,106944
2017-07-11T11:00:36.510Z,106368
2017-07-11T11:01:46.807Z,100704
2017-07-11T11:02:57.119Z,103136
2017-07-11T11:04:07.100Z,104928
2017-07-11T11:05:17.420Z,111488
2017-07-11T11:06:27.975Z,83104
2017-07-11T11:07:37.618Z,61696
2017-07-11T11:08:47.896Z,67936
2017-07-11T11:09:58.170Z,65408
2017-07-11T11:11:07.515Z,81056
2017-07-11T11:12:17.405Z,110592
2017-07-11T11:13:27.372Z,122688
2017-07-11T11:14:37.667Z,128768
2017-07-11T11:15:47.643Z,127424
2017-07-11T11:16:57.291Z,102208
2017-07-11T11:18:07.514Z,101440
2017-07-11T11:19:17.813Z,116192
2017-07-11T11:20:28.098Z,125312
2017-07-11T11:21:38.387Z,123680
2017-07-11T11:22:48.362Z,122336
2017-07-11T11:23:58.890Z,120288
2017-07-11T11:25:09.194Z,130656
2017-07-11T11:26:19.150Z,109696
2017-07-11T11:27:29.415Z,57856
2017-07-11T11:28:39.383Z,36672
2017-07-11T11:29:49.938Z,31840
2017-07-11T11:31:00.233Z,32672
2017-07-11T11:32:10.199Z,32000
2017-07-11T11:33:20.167Z,33024
2017-07-11T11:34:30.479Z,36704
2017-07-11T11:35:40.697Z,32320
2017-07-11T11:36:50.687Z,31136
2017-07-11T11:38:00.669Z,38624
2017-07-11T11:39:10.970Z,107456
2017-07-11T11:40:21.306Z,133120
2017-07-11T11:41:31.837Z,134496
2017-07-11T11:42:42.129Z,133408
2017-07-11T11:43:52.452Z,124320
2017-07-11T11:45:02.744Z,119808
2017-07-11T11:46:13.043Z,122528
2017-07-11T11:47:23.626Z,115232
2017-07-11T11:48:33.953Z,69344
2017-07-11T11:49:44.238Z,103488
2017-07-11T11:50:54.527Z,106144
2017-07-11T11:52:04.826Z,126144
2017-07-11T11:53:15.038Z,133696
2017-07-11T11:54:25.333Z,46688
2017-07-11T11:55:35.617Z,48736
2017-07-11T11:56:45.906Z,65696
2017-07-11T11:57:56.209Z,93440
2017-07-11T11:59:06.766Z,102016
2017-07-11T12:00:17.064Z,63584
2017-07-11T12:01:27.016Z,53632
2017-07-11T12:02:36.996Z,78464
2017-07-11T12:03:46.982Z,95360
2017-07-11T12:04:57.200Z,138304
2017-07-11T12:06:07.197Z,110496
2017-07-11T12:07:17.477Z,118144
2017-07-11T12:08:27.428Z,133984
2017-07-11T12:09:37.728Z,137280
2017-07-11T12:10:47.933Z,141856
2017-07-11T12:11:58.234Z,142656
2017-07-11T12:13:08.200Z,138976
2017-07-11T12:14:18.484Z,134944
2017-07-11T12:15:28.158Z,40256
2017-07-11T12:16:38.688Z,40608
2017-07-11T12:17:48.971Z,45568
2017-07-11T12:18:59.265Z,44928
2017-07-11T12:20:09.238Z,44736
2017-07-11T12:21:19.517Z,67648
2017-07-11T12:22:30.041Z,130240
2017-07-11T12:23:40.332Z,63520
2017-07-11T12:24:50.604Z,104320
2017-07-11T12:26:00.940Z,141600
2017-07-11T12:27:11.209Z,121600
2017-07-11T12:28:21.429Z,112064
2017-07-11T12:29:31.706Z,53600
2017-07-11T12:30:41.677Z,133664
2017-07-11T12:31:52.004Z,97344
2017-07-11T12:33:02.263Z,47648
2017-07-11T12:34:12.479Z,134976
2017-07-11T12:35:22.443Z,137312
2017-07-11T12:36:32.419Z,135776
2017-07-11T12:37:42.701Z,35456
2017-07-11T12:38:52.672Z,34464
2017-07-11T12:40:02.893Z,31776
2017-07-11T12:41:13.201Z,35616
2017-07-11T12:42:23.158Z,68064
2017-07-11T12:43:33.441Z,127136
2017-07-11T12:44:43.760Z,65120
2017-07-11T12:45:54.304Z,122048
2017-07-11T12:47:04.589Z,49664
2017-07-11T12:48:14.896Z,60224
2017-07-11T12:49:25.182Z,67520
2017-07-11T12:50:35.492Z,140512
2017-07-11T12:51:45.705Z,123584
2017-07-11T12:52:55.985Z,126080
2017-07-11T12:54:05.965Z,133216
2017-07-11T12:55:16.282Z,139072
2017-07-11T12:56:26.567Z,113216
2017-07-11T12:57:36.473Z,72736
2017-07-11T12:58:47.029Z,57120
2017-07-11T12:59:57.014Z,139904
2017-07-11T13:01:06.970Z,50464
2017-07-11T13:02:17.268Z,49792
2017-07-11T13:03:27.488Z,43552
2017-07-11T13:04:37.778Z,42656
2017-07-11T13:05:48.064Z,48448
2017-07-11T13:06:58.349Z,42784
2017-07-11T13:08:08.617Z,38368
2017-07-11T13:09:19.176Z,32704
2017-07-11T13:10:29.511Z,32832
2017-07-11T13:11:39.823Z,38208
2017-07-11T13:12:49.811Z,44672
2017-07-11T13:14:00.128Z,96736
2017-07-11T13:15:10.341Z,128672
2017-07-11T13:16:20.634Z,137888
2017-07-11T13:17:31.120Z,139296
2017-07-11T13:18:41.401Z,140480
2017-07-11T13:19:51.697Z,134976
2017-07-11T13:21:01.921Z,126912
2017-07-11T13:22:12.209Z,135392
2017-07-11T13:23:22.150Z,134624
2017-07-11T13:24:32.422Z,135168
2017-07-11T13:25:42.380Z,129984
2017-07-11T13:26:52.593Z,129312
2017-07-11T13:28:02.576Z,129152
2017-07-11T13:29:12.884Z,59168
2017-07-11T13:30:23.191Z,117792
2017-07-11T13:31:33.473Z,123296
2017-07-11T13:32:43.979Z,128224
2017-07-11T13:33:54.268Z,122336
2017-07-11T13:35:04.538Z,124384
2017-07-11T13:36:14.855Z,123840
2017-07-11T13:37:24.815Z,101824
2017-07-11T13:38:35.348Z,100864
2017-07-11T13:39:45.634Z,56064
2017-07-11T13:40:55.593Z,52224
2017-07-11T13:42:05.905Z,35904
2017-07-11T13:43:16.218Z,29824
2017-07-11T13:44:26.775Z,28160
2017-07-11T13:45:36.723Z,30272
2017-07-11T13:46:45.770Z,32992
2017-07-11T13:47:56.051Z,33664
2017-07-11T13:49:05.995Z,33728
2017-07-11T13:50:16.546Z,20928
2017-07-11T13:51:26.856Z,16476
2017-07-11T13:52:37.137Z,14412
2017-07-11T13:53:47.439Z,13244
2017-07-11T13:54:57.385Z,12280
2017-07-11T13:56:07.956Z,10804
2017-07-11T13:57:18.236Z,9252
2017-07-11T13:58:28.750Z,7788
2017-07-11T13:59:39.031Z,6524
2017-07-11T14:00:49.310Z,5532
2017-07-11T14:01:59.852Z,4548
2017-07-11T14:03:09.830Z,3684
2017-07-11T14:04:20.118Z,3036
2017-07-11T14:05:30.081Z,2652
2017-07-11T14:06:40.042Z,2556
2017-07-11T14:07:50.250Z,2584
2017-07-11T14:09:00.534Z,2692
2017-07-11T14:10:10.523Z,2700
2017-07-11T14:11:20.834Z,2728
2017-07-11T14:12:31.140Z,2780
2017-07-11T14:13:41.641Z,2852
2017-07-11T14:14:51.952Z,3064
2017-07-11T14:16:02.428Z,3340
2017-07-11T14:17:12.789Z,3592
2017-07-11T14:18:22.754Z,3896
2017-07-11T14:19:33.277Z,4368
2017-07-11T14:20:43.555Z,4664
2017-07-11T14:21:53.843Z,5168
2017-07-11T14:23:04.109Z,5876
2017-07-11T14:24:14.406Z,6720
2017-07-11T14:25:24.626Z,7920
2017-07-11T14:26:34.904Z,9100
2017-07-11T14:27:44.863Z,10696
2017-07-11T14:28:55.139Z,12348
2017-07-11T14:30:05.432Z,14336
2017-07-11T14:31:15.984Z,16736
2017-07-11T14:32:26.261Z,18560
2017-07-11T14:33:36.548Z,19776
2017-07-11T14:34:46.842Z,20832
2017-07-11T14:35:56.789Z,23360
2017-07-11T14:37:07.320Z,28416
2017-07-11T14:38:17.281Z,31328
2017-07-11T14:39:27.230Z,34368
2017-07-11T14:40:37.178Z,41536
2017-07-11T14:41:47.156Z,46016
2017-07-11T14:42:57.690Z,54560
2017-07-11T14:44:07.639Z,76448
2017-07-11T14:45:17.912Z,103392
2017-07-11T14:46:27.879Z,58272
2017-07-11T14:47:37.821Z,84256
2017-07-11T14:48:48.037Z,111808
2017-07-11T14:49:57.990Z,84224
2017-07-11T14:51:07.952Z,118912
2017-07-11T14:52:18.251Z,116224
2017-07-11T14:53:28.200Z,79232
2017-07-11T14:54:38.409Z,104928
2017-07-11T14:55:48.705Z,102464
2017-07-11T14:56:58.977Z,100384
2017-07-11T14:58:08.976Z,101376
2017-07-11T14:59:19.275Z,95744
2017-07-11T15:00:29.802Z,98176
2017-07-11T15:01:40.074Z,97984
2017-07-11T15:02:50.044Z,96256
2017-07-11T15:04:00.339Z,95392
2017-07-11T15:05:10.608Z,102912
2017-07-11T15:06:20.818Z,105696
2017-07-11T15:07:30.791Z,110688
2017-07-11T15:08:40.756Z,104768
2017-07-11T15:09:51.084Z,105024
2017-07-11T15:11:01.062Z,105312
2017-07-11T15:12:11.606Z,100192
2017-07-11T15:13:21.567Z,92480
2017-07-11T15:14:31.846Z,91712
2017-07-11T15:15:42.122Z,90784
2017-07-11T15:16:52.087Z,85920
2017-07-11T15:18:02.310Z,86368
2017-07-11T15:19:12.605Z,87744
2017-07-11T15:20:22.878Z,92928
2017-07-11T15:21:32.834Z,87840
2017-07-11T15:22:43.106Z,89696
2017-07-11T15:23:53.307Z,90720
2017-07-11T15:25:03.577Z,86560
2017-07-11T15:26:13.189Z,89952